الصفحة الرئيسية
METAR-TAF:

METAR-TAF

مطار :

Skelton Airport

Eureka, ألاسكا, الولايات المتحدة

دائرة عرض: 61-56N, خط طول: 147-10W, ارتفاع: 1002 متر

مراقبة الطقس الحالي

تاريخ ووقت الإصدار 35 دقيقة قبل الساعة 16:56UTC
ريح 6 عقدة من الشمال/الشمال الشرقي
درجة الحرارة -20°درجة مئوية
الرطوبة 70%
ضغط 1010 hPa
الرؤية: 16.1 كم
ملبد بالغيوم على ارتفاع 3600 قدم

METAR: PAZK 041656Z AUTO 03006KT 10SM OVC036 M20/M24 A2983 RMK AO2 SLP212 T12001239 FZRANO

زمن: 08:31 (17:31 UTC)


TAF: مفقودة

أرصاد الطقس والتوقعات من أكثر من 4000 مطار (تقارير الطقس للمطار METAR والتنبؤ بالطقس بالمطارTAF).

المحطات المتاحة هي النقط الصفراء والحمراء على الخريطة.

حرك المؤشر فوق النقطة لمعرفة اسم المحطة.

ثم انقر لمعرفة أرصاد وتوقعات الطقس.

لتغيير الخارطة: اضغط على الأزرار الخضراء مع رمز الصليب الأسود للتكبير. على الزر الأخضر مع شرطة للتصغير، أو على الأسهم الخضراء للخرائط المجاورة.


METAR-TAF: